Time;durP1;ratioP1;P1;durP2;ratioP2;P2;SDS_P1;SDS_P2;PMS_P1;PMS_P2;Temp;Humidity;BMP_temperature;BMP_pressure;BME280_temperature;BME280_humidity;BME280_pressure;Samples;Min_cycle;Max_cycle;Signal;HPM_P1;HPM_P2
2022/06/30 00:01:19;;;;;;;;;0.00;0.00;;;;;20.27;52.44;100415.53;5094347;27;45580;-81
2022/06/30 00:03:44;;;;;;;;;0.00;0.00;;;;;20.22;51.94;100409.56;5090039;27;45481;-81
2022/06/30 00:06:09;;;;;;;;;1.00;0.00;;;;;20.19;52.22;100420.50;5093233;27;45437;-81
2022/06/30 00:08:34;;;;;;;;;0.00;0.00;;;;;19.97;51.70;100404.88;5093030;27;46417;-80
2022/06/30 00:11:06;;;;;;;;;1.00;0.00;;;;;19.96;51.76;100414.75;5094317;27;45559;-81
2022/06/30 00:13:36;;;;;;;;;0.00;0.00;;;;;20.02;51.79;100446.53;5093449;27;45524;-81
2022/06/30 00:16:01;;;;;;;;;0.00;0.00;;;;;19.69;51.80;100393.13;5093025;27;45578;-81
2022/06/30 00:18:27;;;;;;;;;0.00;0.00;;;;;19.92;52.36;100439.16;5092817;27;45503;-81
2022/06/30 00:20:53;;;;;;;;;0.00;0.00;;;;;19.77;52.61;100432.88;5092965;27;45401;-80
2022/06/30 00:23:18;;;;;;;;;0.00;0.00;;;;;19.64;52.58;100417.53;5080674;27;45496;-80
2022/06/30 00:25:44;;;;;;;;;0.00;0.00;;;;;19.64;52.42;100430.94;5079580;27;45428;-82
2022/06/30 00:28:09;;;;;;;;;0.00;0.00;;;;;19.54;52.09;100416.38;5094053;27;45611;-81
2022/06/30 00:30:34;;;;;;;;;0.00;0.00;;;;;19.63;51.98;100442.63;5092441;27;45740;-80
2022/06/30 00:33:00;;;;;;;;;0.00;0.00;;;;;19.59;51.87;100446.44;5094518;27;45377;-80
2022/06/30 00:35:25;;;;;;;;;0.00;0.00;;;;;19.39;51.76;100417.28;5109655;27;45323;-81
2022/06/30 00:37:50;;;;;;;;;1.00;1.00;;;;;19.47;52.42;100453.38;5093756;27;45355;-80
2022/06/30 00:40:16;;;;;;;;;1.00;0.00;;;;;19.26;52.01;100433.22;5094765;27;45326;-82
2022/06/30 00:42:41;;;;;;;;;0.00;0.00;;;;;19.28;52.47;100440.22;5081993;27;45335;-80
2022/06/30 00:45:07;;;;;;;;;0.00;0.00;;;;;19.29;52.93;100449.13;5078530;27;45581;-80
2022/06/30 00:47:33;;;;;;;;;0.25;0.25;;;;;19.33;53.19;100470.28;5075110;28;47304;-77
2022/06/30 00:49:58;;;;;;;;;1.50;0.00;;;;;19.21;53.46;100446.88;5076348;27;45441;-76
2022/06/30 00:52:25;;;;;;;;;2.75;0.00;;;;;19.21;53.71;100454.03;5076622;27;45433;-78
2022/06/30 00:54:52;;;;;;;;;0.00;0.00;;;;;19.19;54.03;100459.50;5076879;27;45471;-78
2022/06/30 00:57:19;;;;;;;;;0.00;0.00;;;;;19.08;54.16;100443.19;5076185;27;45439;-78
2022/06/30 00:59:48;;;;;;;;;2.00;1.00;;;;;19.07;54.50;100444.13;5076193;27;45392;-78
2022/06/30 01:02:15;;;;;;;;;0.00;0.00;;;;;18.81;54.65;100417.00;5075182;27;45621;-77
2022/06/30 01:04:41;;;;;;;;;0.00;0.00;;;;;18.94;54.89;100434.13;5078955;27;45589;-81
2022/06/30 01:07:09;;;;;;;;;0.25;0.25;;;;;18.87;55.13;100423.84;5089500;27;45582;-81
2022/06/30 01:15:02;;;;;;;;;0.00;0.00;;;;;18.75;55.78;100434.28;5095983;27;45487;-77
2022/06/30 01:17:28;;;;;;;;;0.00;0.00;;;;;18.61;56.05;100427.03;5096318;27;46950;-77
2022/06/30 01:19:55;;;;;;;;;0.00;0.00;;;;;18.64;56.13;100448.28;5095471;27;45419;-77
2022/06/30 01:22:20;;;;;;;;;1.00;0.00;;;;;18.60;56.36;100441.38;5096385;27;45488;-77
2022/06/30 01:24:46;;;;;;;;;0.00;0.00;;;;;18.60;56.53;100441.38;5095292;27;45335;-77
2022/06/30 01:27:11;;;;;;;;;0.00;0.00;;;;;18.59;56.35;100438.78;5095678;27;45571;-78
2022/06/30 01:29:37;;;;;;;;;0.00;0.00;;;;;18.55;56.46;100435.38;5094975;27;45445;-77
2022/06/30 01:32:03;;;;;;;;;0.00;0.00;;;;;18.57;56.56;100429.94;5095651;27;45419;-78
2022/06/30 01:34:28;;;;;;;;;0.00;0.00;;;;;18.46;56.70;100434.09;5095723;27;45529;-77
2022/06/30 01:36:54;;;;;;;;;0.00;0.00;;;;;18.46;56.83;100433.22;5097398;27;46117;-77
2022/06/30 01:39:19;;;;;;;;;0.00;0.00;;;;;18.53;56.34;100428.41;5094898;27;45445;-77
2022/06/30 01:41:44;;;;;;;;;1.00;0.00;;;;;18.50;56.51;100424.09;5075987;27;45518;-77
2022/06/30 01:44:11;;;;;;;;;0.50;0.00;;;;;18.48;56.85;100431.34;5076192;27;45398;-77
2022/06/30 01:46:36;;;;;;;;;0.00;0.00;;;;;18.39;57.14;100442.56;5090593;27;45421;-78
2022/06/30 01:49:02;;;;;;;;;0.00;0.00;;;;;18.37;57.20;100447.09;5094644;27;45534;-81
2022/06/30 01:51:27;;;;;;;;;0.00;0.00;;;;;18.32;57.66;100450.03;5083057;27;45402;-79
2022/06/30 01:53:53;;;;;;;;;0.75;0.75;;;;;18.31;57.50;100445.66;5076222;27;45442;-81
2022/06/30 01:56:18;;;;;;;;;0.00;0.00;;;;;18.29;57.70;100437.72;5094830;27;45835;-81
2022/06/30 01:58:44;;;;;;;;;0.00;0.00;;;;;18.31;57.84;100436.75;5096342;27;45362;-77
2022/06/30 02:01:09;;;;;;;;;1.00;1.00;;;;;18.29;57.88;100437.72;5096606;27;45434;-78
2022/06/30 02:03:35;;;;;;;;;0.00;0.00;;;;;18.33;58.32;100442.91;5095632;27;45657;-76
2022/06/30 02:06:00;;;;;;;;;0.00;0.00;;;;;18.26;58.08;100443.19;5095054;27;45426;-77
2022/06/30 02:08:25;;;;;;;;;2.00;0.50;;;;;18.34;58.17;100441.91;5096427;27;45496;-78
2022/06/30 02:10:51;;;;;;;;;1.00;0.00;;;;;18.33;58.39;100450.91;5095496;27;45698;-77
2022/06/30 02:13:16;;;;;;;;;0.25;0.25;;;;;18.26;58.79;100443.19;5095420;27;45449;-77
2022/06/30 02:15:41;;;;;;;;;0.00;0.00;;;;;18.26;58.63;100437.84;5094255;27;45416;-77
2022/06/30 02:18:08;;;;;;;;;0.00;0.00;;;;;18.25;58.75;100438.81;5095842;27;45395;-77
2022/06/30 02:20:34;;;;;;;;;1.00;1.00;;;;;18.13;58.76;100410.06;5095298;27;45423;-81
2022/06/30 02:23:02;;;;;;;;;0.00;0.00;;;;;18.21;59.18;100429.22;5095092;27;45379;-79
2022/06/30 02:25:30;;;;;;;;;0.00;0.00;;;;;18.18;59.05;100429.38;5096248;27;45465;-81
2022/06/30 02:27:56;;;;;;;;;0.00;0.00;;;;;18.16;59.05;100420.59;5090899;27;45401;-81
2022/06/30 02:30:23;;;;;;;;;0.00;0.00;;;;;18.16;58.93;100428.63;5095224;27;45540;-81
2022/06/30 02:32:48;;;;;;;;;2.00;1.00;;;;;18.05;59.33;100417.63;5097488;27;45388;-81
2022/06/30 02:35:14;;;;;;;;;0.00;0.00;;;;;18.14;59.23;100427.81;5099702;27;46061;-80
2022/06/30 02:37:40;;;;;;;;;2.50;1.00;;;;;18.05;59.03;100420.28;5104920;27;44798;-81
2022/06/30 02:40:07;;;;;;;;;0.25;0.00;;;;;18.02;58.77;100412.44;5099497;27;45424;-81
2022/06/30 02:42:32;;;;;;;;;0.00;0.00;;;;;18.06;58.97;100443.41;5096479;27;45605;-80
2022/06/30 02:44:58;;;;;;;;;1.00;1.00;;;;;18.09;58.91;100432.56;5095234;27;46301;-82
2022/06/30 02:47:33;;;;;;;;;0.00;0.00;;;;;18.11;59.05;100441.34;5096410;27;45377;-80
2022/06/30 02:50:04;;;;;;;;;1.00;1.00;;;;;18.13;58.94;100446.63;5094170;27;45389;-77
2022/06/30 02:52:30;;;;;;;;;0.00;0.00;;;;;18.10;58.57;100450.34;5095304;27;45536;-77
2022/06/30 02:54:56;;;;;;;;;0.00;0.00;;;;;18.10;58.84;100436.97;5093422;27;48258;-81
2022/06/30 02:57:21;;;;;;;;;1.00;1.00;;;;;18.05;58.93;100444.34;5094149;27;45477;-81
2022/06/30 02:59:47;;;;;;;;;0.00;0.00;;;;;18.05;58.52;100439.91;5094247;27;45403;-81
2022/06/30 03:02:12;;;;;;;;;0.00;0.00;;;;;18.01;58.59;100437.47;5095887;27;45429;-81
2022/06/30 03:04:37;;;;;;;;;0.25;0.25;;;;;17.94;58.70;100429.75;5095215;27;45462;-80
2022/06/30 03:07:03;;;;;;;;;0.00;0.00;;;;;18.01;58.87;100438.31;5094162;27;45430;-81
2022/06/30 03:09:28;;;;;;;;;0.50;0.50;;;;;18.01;58.76;100442.81;5093488;27;45369;-81
2022/06/30 03:11:54;;;;;;;;;0.00;0.00;;;;;17.97;59.07;100444.75;5094899;27;45602;-81
2022/06/30 03:14:19;;;;;;;;;1.00;1.00;;;;;18.01;58.75;100469.56;5095742;27;46245;-81
2022/06/30 03:16:45;;;;;;;;;1.75;0.00;;;;;17.91;58.84;100437.91;5093468;27;45340;-82
2022/06/30 03:19:10;;;;;;;;;0.75;0.00;;;;;17.95;58.79;100444.00;5095610;27;45505;-81
2022/06/30 03:21:35;;;;;;;;;1.00;0.00;;;;;17.92;58.52;100430.78;5093253;27;45439;-78
2022/06/30 03:24:01;;;;;;;;;0.00;0.00;;;;;18.02;58.28;100441.84;5093561;27;57230;-77
2022/06/30 03:26:26;;;;;;;;;1.00;1.00;;;;;18.04;58.63;100429.28;5094920;27;45417;-77
2022/06/30 03:28:51;;;;;;;;;0.00;0.00;;;;;18.03;58.44;100430.22;5094461;27;45323;-81
2022/06/30 03:31:17;;;;;;;;;0.75;0.75;;;;;17.94;58.16;100416.38;5092789;27;45531;-81
2022/06/30 03:33:42;;;;;;;;;0.00;0.00;;;;;18.02;58.31;100439.16;5096220;27;46388;-80
2022/06/30 03:36:07;;;;;;;;;1.00;1.00;;;;;17.98;58.86;100441.16;5093247;27;46057;-81
2022/06/30 03:38:33;;;;;;;;;2.00;0.00;;;;;18.02;58.56;100450.75;5094553;27;45332;-81
2022/06/30 03:40:58;;;;;;;;;0.00;0.00;;;;;17.97;58.73;100450.09;5093735;27;45568;-81
2022/06/30 03:43:23;;;;;;;;;0.00;0.00;;;;;17.90;58.80;100446.91;5094305;27;46294;-80
2022/06/30 03:45:49;;;;;;;;;0.00;0.00;;;;;18.01;58.55;100465.06;5085886;27;45363;-81
2022/06/30 03:48:14;;;;;;;;;0.00;0.00;;;;;18.05;58.47;100458.59;5093394;27;45756;-80
2022/06/30 03:50:39;;;;;;;;;0.00;0.00;;;;;17.94;58.38;100437.75;5087034;27;45581;-81
2022/06/30 03:53:05;;;;;;;;;0.25;0.25;;;;;17.90;58.38;100446.91;5073751;27;45476;-81
2022/06/30 03:55:30;;;;;;;;;2.75;1.00;;;;;17.99;58.68;100463.41;5073362;28;45490;-82
2022/06/30 03:57:56;;;;;;;;;2.00;1.00;;;;;18.00;58.44;100473.16;5087590;27;45481;-77
2022/06/30 04:00:22;;;;;;;;;1.25;0.00;;;;;18.02;58.69;100476.59;5092747;27;45634;-77
2022/06/30 04:02:48;;;;;;;;;0.00;0.00;;;;;17.97;58.67;100470.66;5094222;27;47112;-77
2022/06/30 04:05:13;;;;;;;;;0.00;0.00;;;;;18.02;58.44;100480.16;5094305;27;45437;-77
2022/06/30 04:07:40;;;;;;;;;0.00;0.00;;;;;18.01;58.66;100481.09;5094975;27;45457;-77
2022/06/30 04:10:06;;;;;;;;;1.75;0.25;;;;;17.99;59.41;100480.31;5093400;27;45630;-77
2022/06/30 04:12:31;;;;;;;;;0.75;0.75;;;;;17.91;59.68;100470.00;5087419;27;45656;-76
2022/06/30 04:14:56;;;;;;;;;0.00;0.00;;;;;17.89;60.76;100471.06;5071949;28;45485;-77
2022/06/30 04:17:22;;;;;;;;;0.00;0.00;;;;;17.89;60.95;100477.25;5073927;28;45441;-76
2022/06/30 04:19:47;;;;;;;;;0.00;0.00;;;;;17.90;61.67;100468.28;5077611;27;45634;-80
2022/06/30 04:22:12;;;;;;;;;1.00;1.00;;;;;17.86;61.99;100473.84;5093643;27;46011;-81
2022/06/30 04:24:38;;;;;;;;;2.00;1.00;;;;;17.75;62.39;100461.91;5098063;27;45501;-80
2022/06/30 04:27:03;;;;;;;;;0.00;0.00;;;;;17.80;62.59;100487.53;5097189;27;45391;-81
2022/06/30 04:29:29;;;;;;;;;1.00;1.00;;;;;17.69;62.03;100474.72;5098117;27;45628;-81
2022/06/30 04:34:38;;;;;;;;;1.50;0.50;;;;;17.71;62.07;100494.22;5108573;27;45344;-81
2022/06/30 04:37:04;;;;;;;;;2.00;1.00;;;;;17.76;63.66;100509.06;5100130;27;45353;-79
2022/06/30 04:39:29;;;;;;;;;1.75;1.00;;;;;17.64;63.97;100503.47;5114381;27;45526;-81
2022/06/30 04:41:54;;;;;;;;;1.00;1.00;;;;;17.66;63.71;100504.25;5100041;27;46128;-77
2022/06/30 04:44:20;;;;;;;;;1.00;1.00;;;;;17.62;64.19;100492.00;5096143;27;45386;-77
2022/06/30 04:46:45;;;;;;;;;0.75;0.75;;;;;17.60;64.91;100502.78;5082255;27;45397;-76
2022/06/30 04:49:10;;;;;;;;;4.00;0.75;;;;;17.47;65.17;100486.47;5080635;27;45442;-77
2022/06/30 04:51:36;;;;;;;;;1.25;0.75;;;;;17.58;65.53;100491.28;5097252;27;46549;-77
2022/06/30 04:54:01;;;;;;;;;2.50;1.75;;;;;17.47;66.48;100472.25;5095851;27;45524;-77
2022/06/30 04:56:26;;;;;;;;;1.50;0.00;;;;;17.50;67.56;100474.78;5096542;27;45485;-77
2022/06/30 04:58:52;;;;;;;;;0.75;0.75;;;;;17.49;67.42;100463.25;5093735;27;45382;-76
2022/06/30 05:01:17;;;;;;;;;0.00;0.00;;;;;17.44;66.98;100465.25;5076012;27;45333;-77
2022/06/30 05:03:43;;;;;;;;;0.50;0.00;;;;;17.35;65.91;100441.69;5075791;27;45331;-77
2022/06/30 05:06:08;;;;;;;;;0.00;0.00;;;;;17.28;66.16;100443.81;5076153;28;45412;-76
2022/06/30 05:08:34;;;;;;;;;1.25;0.50;;;;;17.28;66.67;100449.16;5095890;27;45498;-77
2022/06/30 05:11:00;;;;;;;;;1.00;1.00;;;;;17.27;65.95;100439.41;5086242;27;46748;-77
2022/06/30 05:13:26;;;;;;;;;1.25;1.25;;;;;17.24;65.60;100447.56;5076069;27;45447;-77
2022/06/30 05:15:52;;;;;;;;;0.00;0.00;;;;;17.21;65.75;100451.25;5076541;27;45423;-76
2022/06/30 05:18:17;;;;;;;;;1.00;1.00;;;;;17.15;66.20;100454.22;5092518;27;45559;-78
2022/06/30 05:20:42;;;;;;;;;2.00;0.25;;;;;17.12;66.54;100454.38;5096347;27;45362;-77
2022/06/30 05:23:09;;;;;;;;;1.25;0.25;;;;;17.10;67.34;100450.06;5095277;27;45415;-76
2022/06/30 05:28:21;;;;;;;;;1.00;1.00;;;;;17.05;67.22;100479.66;5092441;27;45467;-77
2022/06/30 05:30:49;;;;;;;;;1.00;1.00;;;;;17.09;67.17;100483.91;5095818;27;47334;-78
2022/06/30 05:33:15;;;;;;;;;1.00;1.00;;;;;16.97;67.31;100472.00;5098460;27;45418;-78
2022/06/30 05:35:42;;;;;;;;;1.50;1.00;;;;;16.97;67.81;100471.16;5095537;27;45427;-82
2022/06/30 05:38:07;;;;;;;;;0.50;0.50;;;;;17.08;66.86;100490.19;5097865;27;45461;-82
2022/06/30 05:40:33;;;;;;;;;1.00;1.00;;;;;17.10;66.92;100485.63;5096072;27;46071;-77
2022/06/30 05:42:58;;;;;;;;;0.50;0.00;;;;;17.05;66.69;100469.84;5096315;27;45412;-77
2022/06/30 05:45:23;;;;;;;;;1.00;1.00;;;;;17.13;67.39;100480.16;5091145;27;45435;-77
2022/06/30 05:47:51;;;;;;;;;0.00;0.00;;;;;17.14;67.62;100489.91;5076238;28;45415;-80
2022/06/30 05:50:21;;;;;;;;;0.25;0.00;;;;;17.15;68.58;100490.75;5074145;27;47073;-80
2022/06/30 05:52:47;;;;;;;;;2.00;2.00;;;;;17.08;68.94;100484.84;5076012;27;45463;-78
2022/06/30 05:55:13;;;;;;;;;0.75;0.75;;;;;17.12;68.12;100497.09;5074369;27;45358;-81
2022/06/30 05:58:08;;;;;;;;;1.00;0.00;;;;;17.12;67.69;100502.44;5088828;27;45662;-76
2022/06/30 06:00:34;;;;;;;;;1.00;1.00;;;;;17.04;68.12;100499.28;5086911;27;45379;-81
2022/06/30 06:02:59;;;;;;;;;0.25;0.25;;;;;16.91;68.37;100484.78;5096903;27;45504;-82
2022/06/30 06:05:25;;;;;;;;;1.00;1.00;;;;;16.92;68.82;100482.03;5094905;27;45471;-81
2022/06/30 06:07:51;;;;;;;;;1.00;1.00;;;;;16.99;68.92;100485.28;5095928;27;45409;-79
2022/06/30 06:10:17;;;;;;;;;0.00;0.00;;;;;16.80;68.07;100470.13;5094230;27;48081;-76
2022/06/30 06:12:43;;;;;;;;;2.00;2.00;;;;;16.87;68.31;100494.75;5095586;27;45385;-77
2022/06/30 06:15:13;;;;;;;;;1.00;1.00;;;;;16.72;68.20;100472.28;5095926;27;45402;-78
2022/06/30 06:17:44;;;;;;;;;2.00;1.00;;;;;16.77;69.31;100499.63;5094635;27;45511;-78
2022/06/30 06:20:12;;;;;;;;;1.25;0.75;;;;;16.82;69.47;100496.72;5111286;27;45464;-81
2022/06/30 06:22:38;;;;;;;;;0.50;0.50;;;;;16.75;69.46;100488.16;5094397;27;45462;-81
2022/06/30 06:25:04;;;;;;;;;2.50;1.00;;;;;16.73;69.20;100483.81;5095585;27;45397;-80
2022/06/30 06:27:29;;;;;;;;;1.00;1.00;;;;;16.74;68.32;100474.88;5097165;27;45480;-81
2022/06/30 06:29:55;;;;;;;;;3.50;1.25;;;;;16.75;69.52;100480.16;5104646;27;45488;-80
2022/06/30 06:32:22;;;;;;;;;3.00;2.00;;;;;16.63;69.09;100467.41;5106202;27;45421;-81
2022/06/30 06:34:48;;;;;;;;;1.00;1.00;;;;;16.82;69.77;100494.06;5093500;27;45510;-80
2022/06/30 06:37:13;;;;;;;;;1.00;1.00;;;;;16.85;69.07;100489.47;5092543;27;45695;-81
2022/06/30 06:39:38;;;;;;;;;1.00;1.00;;;;;16.75;68.90;100480.16;5092680;27;45562;-78
2022/06/30 06:42:04;;;;;;;;;1.75;1.00;;;;;16.61;69.61;100470.13;5094935;27;45405;-82
2022/06/30 06:44:29;;;;;;;;;1.50;1.50;;;;;16.65;70.25;100471.69;5095939;27;45340;-81
2022/06/30 06:46:54;;;;;;;;;2.75;2.75;;;;;16.81;70.20;100514.56;5095378;27;45462;-81
2022/06/30 06:49:20;;;;;;;;;1.00;1.00;;;;;16.94;70.57;100508.66;5088985;27;46632;-81
2022/06/30 06:51:45;;;;;;;;;1.00;1.00;;;;;16.96;70.04;100509.44;5077273;27;45589;-82
2022/06/30 06:54:10;;;;;;;;;2.75;1.00;;;;;16.92;69.83;100513.22;5102162;27;45561;-81
2022/06/30 06:56:36;;;;;;;;;1.75;1.75;;;;;17.06;69.71;100526.75;5086194;27;45363;-81
2022/06/30 06:59:01;;;;;;;;;2.00;2.00;;;;;17.04;69.47;100526.00;5086776;27;45382;-82
2022/06/30 07:01:27;;;;;;;;;2.50;1.75;;;;;17.12;69.26;100542.50;5080456;27;45408;-81
2022/06/30 07:03:52;;;;;;;;;1.25;1.25;;;;;17.08;69.38;100524.03;5083713;27;45435;-82
2022/06/30 07:06:17;;;;;;;;;1.00;1.00;;;;;17.14;69.49;100524.63;5089290;27;45318;-78
2022/06/30 07:08:43;;;;;;;;;2.75;1.75;;;;;17.19;68.96;100519.03;5087012;27;46073;-78
2022/06/30 07:11:12;;;;;;;;;1.50;1.50;;;;;17.26;68.93;100530.28;5093701;27;45431;-82
2022/06/30 07:13:37;;;;;;;;;4.50;3.00;;;;;17.35;68.80;100537.84;5085953;27;45294;-82
2022/06/30 07:16:03;;;;;;;;;3.75;2.00;;;;;17.02;68.64;100490.47;5090444;27;45479;-82
2022/06/30 07:18:28;;;;;;;;;2.50;2.00;;;;;17.32;68.25;100530.84;5088516;27;45462;-82
2022/06/30 07:20:54;;;;;;;;;1.50;1.25;;;;;17.39;68.96;100539.44;5095166;27;45324;-82
2022/06/30 07:23:20;;;;;;;;;3.00;3.00;;;;;17.47;70.00;100550.59;5092038;27;45660;-83
2022/06/30 07:25:46;;;;;;;;;2.50;1.75;;;;;17.25;69.76;100518.75;5094078;27;45610;-82
2022/06/30 07:28:11;;;;;;;;;6.50;3.25;;;;;17.40;69.93;100527.81;5086966;27;47171;-81
2022/06/30 07:30:36;;;;;;;;;4.00;2.50;;;;;17.40;70.02;100534.03;5093759;27;45386;-81
2022/06/30 07:33:02;;;;;;;;;2.00;2.00;;;;;17.42;69.38;100525.94;5092266;27;45717;-82
2022/06/30 07:35:28;;;;;;;;;2.25;2.25;;;;;17.50;69.18;100534.41;5093927;27;45481;-81
2022/06/30 07:37:53;;;;;;;;;1.75;1.00;;;;;17.35;69.03;100503.97;5091535;27;47516;-82
2022/06/30 07:40:19;;;;;;;;;2.00;2.00;;;;;17.46;68.70;100516.84;5074209;27;45531;-82
2022/06/30 07:42:44;;;;;;;;;1.50;1.00;;;;;17.39;68.74;100504.72;5077727;27;45427;-78
2022/06/30 07:45:11;;;;;;;;;5.00;2.50;;;;;17.48;68.85;100520.28;5084078;27;45388;-77
2022/06/30 07:47:41;;;;;;;;;11.25;7.00;;;;;17.55;69.46;100537.75;5082201;27;46354;-77
2022/06/30 07:50:07;;;;;;;;;5.75;2.00;;;;;17.57;68.88;100541.19;5082335;27;45490;-78
2022/06/30 07:52:33;;;;;;;;;1.00;1.00;;;;;17.57;68.20;100541.19;5078341;27;45529;-77
2022/06/30 07:54:59;;;;;;;;;1.00;1.00;;;;;17.55;68.51;100540.41;5091357;27;45493;-77
2022/06/30 07:57:26;;;;;;;;;1.00;1.00;;;;;17.54;68.90;100541.34;5091148;27;46221;-78
2022/06/30 07:59:52;;;;;;;;;2.25;1.00;;;;;17.51;68.79;100544.16;5093172;27;45596;-79
2022/06/30 08:02:17;;;;;;;;;2.00;1.50;;;;;17.51;68.85;100541.50;5086105;27;45441;-81
2022/06/30 08:04:42;;;;;;;;;2.00;2.00;;;;;17.43;69.10;100527.66;5090717;27;45697;-80
2022/06/30 08:07:08;;;;;;;;;2.00;1.00;;;;;17.52;68.32;100537.00;5090836;27;45765;-79
2022/06/30 08:09:33;;;;;;;;;3.50;1.00;;;;;17.51;68.02;100535.31;5097115;27;45702;-79
2022/06/30 08:11:59;;;;;;;;;1.75;1.75;;;;;17.46;68.39;100529.31;5096656;27;45584;-80
2022/06/30 08:14:24;;;;;;;;;1.25;1.25;;;;;17.43;68.32;100524.13;5096451;27;45737;-82
2022/06/30 08:16:50;;;;;;;;;1.00;1.00;;;;;17.44;68.57;100525.84;5095807;27;45468;-82
2022/06/30 08:19:16;;;;;;;;;2.50;1.75;;;;;17.40;69.38;100534.03;5093978;27;45519;-78
2022/06/30 08:21:42;;;;;;;;;1.50;1.25;;;;;17.37;69.23;100527.97;5095460;27;45472;-82
2022/06/30 08:24:08;;;;;;;;;2.00;2.00;;;;;17.36;69.69;100527.09;5087154;27;45565;-78
2022/06/30 08:26:34;;;;;;;;;1.75;1.75;;;;;17.31;69.02;100528.25;5104171;27;46179;-81
2022/06/30 08:28:59;;;;;;;;;2.00;0.75;;;;;17.13;67.61;100504.19;5109262;27;45399;-82
2022/06/30 08:31:25;;;;;;;;;1.00;1.00;;;;;17.11;68.25;100511.41;5097079;27;45436;-79
2022/06/30 08:33:52;;;;;;;;;0.50;0.50;;;;;17.15;67.24;100517.47;5086621;27;45497;-78
2022/06/30 08:36:18;;;;;;;;;1.00;0.00;;;;;17.09;67.39;100507.94;5094277;27;47266;-78
2022/06/30 08:38:43;;;;;;;;;0.50;0.50;;;;;17.04;67.43;100499.28;5092102;27;45752;-84
2022/06/30 08:43:54;;;;;;;;;1.00;1.00;;;;;17.16;68.66;100520.06;5092368;27;45390;-78
2022/06/30 08:46:23;;;;;;;;;0.00;0.00;;;;;17.18;67.48;100519.97;5096022;27;46178;-79
2022/06/30 08:48:49;;;;;;;;;1.00;0.00;;;;;17.13;68.17;100511.34;5090022;27;45241;-79
2022/06/30 08:51:16;;;;;;;;;1.00;1.00;;;;;17.21;68.89;100517.16;5094892;27;45615;-77
2022/06/30 08:54:00;;;;;;;;;2.00;2.00;;;;;17.21;67.83;100510.00;5088558;27;45656;-82
2022/06/30 08:56:31;;;;;;;;;0.00;0.00;;;;;17.17;67.42;100510.22;5086907;27;46391;-81
2022/06/30 08:58:58;;;;;;;;;0.00;0.00;;;;;17.13;67.08;100506.00;5083034;27;45443;-81
2022/06/30 09:01:26;;;;;;;;;1.00;1.00;;;;;17.09;67.27;100497.25;5093589;27;45587;-80
2022/06/30 09:03:52;;;;;;;;;0.00;0.00;;;;;17.04;67.27;100478.78;5079713;27;45491;-79
2022/06/30 09:06:17;;;;;;;;;0.50;0.50;;;;;17.19;67.76;100509.22;5088696;27;46224;-82
2022/06/30 09:08:43;;;;;;;;;1.00;1.00;;;;;17.20;67.95;100489.59;5079422;27;45460;-81
2022/06/30 09:11:08;;;;;;;;;0.25;0.25;;;;;17.16;66.60;100488.00;5086956;27;45470;-82
2022/06/30 09:13:43;;;;;;;;;3.00;3.00;;;;;17.15;67.84;100480.94;5087582;27;45480;-81
2022/06/30 09:16:08;;;;;;;;;1.00;0.00;;;;;17.08;68.42;100482.19;5085847;27;46198;-83
2022/06/30 09:18:34;;;;;;;;;1.00;1.00;;;;;17.05;68.51;100485.00;5091894;27;45737;-76
2022/06/30 09:21:00;;;;;;;;;3.25;2.00;;;;;16.98;68.26;100483.56;5082587;27;45600;-81
2022/06/30 09:23:30;;;;;;;;;2.00;2.00;;;;;16.89;69.77;100468.84;5095956;27;45437;-82
2022/06/30 09:25:58;;;;;;;;;2.00;1.00;;;;;16.96;69.42;100496.09;5089179;27;46179;-78
2022/06/30 09:28:42;;;;;;;;;1.25;0.25;;;;;17.06;69.82;100513.41;5094185;27;45470;-81
2022/06/30 09:31:12;;;;;;;;;0.50;0.00;;;;;16.98;69.77;100504.91;5096229;27;45795;-83
2022/06/30 09:33:45;;;;;;;;;1.00;1.00;;;;;17.06;69.90;100518.75;5094507;27;45442;-82
2022/06/30 09:36:27;;;;;;;;;3.75;3.25;;;;;16.93;69.50;100490.91;5088107;27;46055;-83
2022/06/30 09:39:08;;;;;;;;;2.25;1.75;;;;;17.02;70.22;100512.72;5087385;27;45499;-82
2022/06/30 09:41:39;;;;;;;;;1.00;1.00;;;;;16.91;68.74;100498.13;5078339;27;45538;-82
2022/06/30 09:44:21;;;;;;;;;0.00;0.00;;;;;16.99;68.99;100506.63;5094741;27;45705;-78
2022/06/30 09:47:07;;;;;;;;;2.00;1.75;;;;;17.12;68.09;100522.94;5102062;27;46924;-79
2022/06/30 09:49:34;;;;;;;;;1.00;1.00;;;;;16.95;66.80;100499.72;5089220;27;45543;-79
2022/06/30 09:52:03;;;;;;;;;0.00;0.00;;;;;16.71;66.68;100465.22;5070715;28;46655;-79
2022/06/30 09:54:32;;;;;;;;;2.00;0.50;;;;;16.70;66.56;100450.13;5084308;27;45518;-79
2022/06/30 09:57:04;;;;;;;;;0.50;0.00;;;;;17.05;65.20;100527.72;5079985;27;45454;-79
2022/06/30 09:59:30;;;;;;;;;1.00;0.00;;;;;16.93;68.01;100514.94;5079349;27;45569;-79
2022/06/30 10:01:55;;;;;;;;;0.50;0.50;;;;;16.82;67.84;100494.94;5090734;27;45398;-78
2022/06/30 10:04:21;;;;;;;;;0.25;0.25;;;;;16.87;68.06;100492.94;5090850;27;45590;-79
2022/06/30 10:06:47;;;;;;;;;5.00;1.00;;;;;16.90;69.30;100496.41;5089782;27;45402;-82
2022/06/30 10:09:17;;;;;;;;;0.00;0.00;;;;;17.10;68.93;100536.38;5094047;27;45364;-82
2022/06/30 10:11:44;;;;;;;;;2.25;0.00;;;;;17.08;68.42;100535.59;5084764;27;45338;-83
2022/06/30 10:14:11;;;;;;;;;1.00;1.00;;;;;17.03;68.73;100530.44;5087741;27;45369;-83
2022/06/30 10:16:42;;;;;;;;;0.00;0.00;;;;;17.06;67.37;100545.47;5082833;27;46163;-84
2022/06/30 10:19:12;;;;;;;;;1.00;1.00;;;;;16.76;67.53;100486.34;5087722;27;45408;-83
2022/06/30 10:21:39;;;;;;;;;0.25;0.25;;;;;16.96;67.95;100528.13;5090972;27;45446;-82
2022/06/30 10:24:09;;;;;;;;;1.00;1.00;;;;;16.78;67.87;100504.03;5085208;27;45447;-83
2022/06/30 10:29:19;;;;;;;;;2.25;0.25;;;;;17.02;68.60;100570.56;5082549;27;45434;-79
2022/06/30 10:32:03;;;;;;;;;0.00;0.00;;;;;16.84;69.10;100551.78;5090827;27;45541;-79
2022/06/30 10:34:38;;;;;;;;;1.75;1.75;;;;;16.86;68.95;100559.72;5079543;27;45438;-83
2022/06/30 10:37:10;;;;;;;;;1.00;1.00;;;;;16.85;68.88;100563.31;5093893;27;46745;-83
2022/06/30 10:39:46;;;;;;;;;1.75;1.75;;;;;16.78;69.51;100560.06;5089234;27;45500;-83
2022/06/30 10:43:01;;;;;;;;;0.25;0.25;;;;;16.83;69.75;100573.19;5083227;27;45635;-83
2022/06/30 10:45:26;;;;;;;;;0.00;0.00;;;;;16.78;69.60;100576.09;5098388;27;45411;-84
2022/06/30 10:48:10;;;;;;;;;2.00;1.00;;;;;16.60;68.82;100564.44;5090698;27;45720;-85
2022/06/30 10:50:38;;;;;;;;;2.00;1.75;;;;;16.60;70.62;100585.78;5087978;27;45636;-79
2022/06/30 10:53:05;;;;;;;;;0.00;0.00;;;;;16.52;70.84;100587.94;5090110;27;45508;-79
2022/06/30 10:55:54;;;;;;;;;1.00;1.00;;;;;16.46;70.79;100597.06;5080969;27;45570;-79
2022/06/30 10:58:21;;;;;;;;;1.00;1.00;;;;;16.13;71.25;100544.28;5085688;27;45598;-79
2022/06/30 11:01:00;;;;;;;;;2.00;0.00;;;;;16.31;69.31;100592.41;5082485;27;45451;-83
2022/06/30 11:03:34;;;;;;;;;2.00;1.25;;;;;16.34;71.83;100605.63;5074348;27;45608;-79
2022/06/30 11:06:13;;;;;;;;;1.50;1.50;;;;;16.45;72.29;100599.81;5082925;27;45562;-77
2022/06/30 11:08:50;;;;;;;;;1.00;0.50;;;;;16.50;71.83;100596.00;5081854;27;45862;-81
2022/06/30 11:11:22;;;;;;;;;1.00;1.00;;;;;16.62;71.55;100596.38;5087513;27;45378;-80
2022/06/30 11:13:47;;;;;;;;;2.00;1.75;;;;;16.73;71.47;100595.91;5082537;27;45650;-79
2022/06/30 11:16:19;;;;;;;;;1.75;1.75;;;;;16.80;72.38;100592.88;5086333;27;45598;-78
2022/06/30 11:18:45;;;;;;;;;2.75;1.00;;;;;16.86;70.77;100586.41;5091131;27;46477;-78
2022/06/30 11:21:11;;;;;;;;;2.00;1.00;;;;;16.95;71.59;100599.34;5092654;27;45578;-79
2022/06/30 11:23:45;;;;;;;;;0.00;0.00;;;;;16.83;69.44;100599.88;5074835;27;45657;-84
2022/06/30 11:28:58;;;;;;;;;1.00;1.00;;;;;16.85;69.94;100595.34;5096442;27;45660;-81
2022/06/30 11:31:25;;;;;;;;;0.00;0.00;;;;;16.92;70.42;100594.16;5096436;27;45447;-82
2022/06/30 11:34:04;;;;;;;;;0.50;0.50;;;;;16.92;69.04;100579.97;5092966;27;45536;-79
2022/06/30 11:36:45;;;;;;;;;0.50;0.50;;;;;16.77;67.49;100539.66;5081596;27;45877;-83
2022/06/30 11:39:17;;;;;;;;;1.50;0.00;;;;;16.90;67.01;100569.34;5091252;27;45615;-79
2022/06/30 11:42:03;;;;;;;;;0.00;0.00;;;;;16.59;69.07;100514.69;5085438;27;45503;-79
2022/06/30 11:44:34;;;;;;;;;1.75;1.75;;;;;16.92;68.95;100563.94;5084978;27;45511;-78